Time;durP1;ratioP1;P1;durP2;ratioP2;P2;SDS_P1;SDS_P2;PMS_P1;PMS_P2;Temp;Humidity;BMP_temperature;BMP_pressure;BME280_temperature;BME280_humidity;BME280_pressure;Samples;Min_cycle;Max_cycle;Signal;HPM_P1;HPM_P2
2021/11/30 00:01:06;;;;;;;16.57;13.03;;;4.20;99.90;;;;;;5063568;28;20564;-66
2021/11/30 00:03:33;;;;;;;17.57;12.20;;;4.10;99.90;;;;;;5051978;28;20170;-64
2021/11/30 00:05:58;;;;;;;14.33;13.10;;;4.20;99.90;;;;;;5059671;28;20533;-65
2021/11/30 00:08:28;;;;;;;14.50;13.13;;;4.20;99.90;;;;;;5070561;28;20185;-65
2021/11/30 00:10:57;;;;;;;15.03;13.53;;;4.30;99.90;;;;;;5065186;28;20178;-65
2021/11/30 00:13:23;;;;;;;14.60;13.50;;;4.20;99.90;;;;;;5054466;28;20178;-66
2021/11/30 00:15:53;;;;;;;13.77;12.37;;;4.20;99.90;;;;;;5071988;28;20699;-65
2021/11/30 00:18:19;;;;;;;14.63;11.37;;;4.30;99.90;;;;;;5069215;28;20172;-65
2021/11/30 00:20:45;;;;;;;14.43;13.03;;;4.30;99.90;;;;;;5051763;28;20179;-65
2021/11/30 00:23:13;;;;;;;13.53;12.20;;;4.30;99.90;;;;;;5053285;28;20182;-65
2021/11/30 00:25:40;;;;;;;11.73;10.60;;;4.30;99.90;;;;;;5071800;28;20271;-66
2021/11/30 00:28:07;;;;;;;16.93;13.40;;;4.20;99.90;;;;;;5069479;28;20190;-65
2021/11/30 00:30:33;;;;;;;19.63;13.17;;;4.30;99.90;;;;;;5059277;28;20206;-66
2021/11/30 00:33:02;;;;;;;12.83;11.43;;;4.30;99.90;;;;;;5071215;28;20218;-66
2021/11/30 00:35:28;;;;;;;14.23;12.13;;;4.30;99.90;;;;;;5052201;28;20189;-66
2021/11/30 00:37:55;;;;;;;15.10;13.07;;;4.30;99.90;;;;;;5051609;28;20171;-66
2021/11/30 00:40:21;;;;;;;13.97;12.57;;;4.30;99.90;;;;;;5069224;28;20208;-66
2021/11/30 00:42:47;;;;;;;11.93;10.70;;;4.30;99.90;;;;;;5071337;28;20573;-65
2021/11/30 00:45:16;;;;;;;12.57;11.37;;;4.30;99.90;;;;;;5055769;28;20190;-66
2021/11/30 00:47:53;;;;;;;11.47;10.43;;;4.30;99.90;;;;;;5051566;28;20233;-66
2021/11/30 00:50:21;;;;;;;18.97;10.93;;;4.30;99.90;;;;;;5067629;28;20216;-66
2021/11/30 00:52:47;;;;;;;12.57;11.30;;;4.30;99.90;;;;;;5071104;28;20201;-66
2021/11/30 00:55:13;;;;;;;13.30;12.10;;;4.30;99.90;;;;;;5055471;28;20187;-66
2021/11/30 00:57:41;;;;;;;11.60;10.77;;;4.30;99.90;;;;;;5051416;28;20262;-66
2021/11/30 01:00:14;;;;;;;13.20;11.03;;;4.30;99.90;;;;;;5066461;28;20229;-65
2021/11/30 01:02:40;;;;;;;12.13;10.93;;;4.30;99.90;;;;;;5071127;28;20221;-65
2021/11/30 01:05:07;;;;;;;12.30;11.20;;;4.30;99.90;;;;;;5056688;28;20187;-66
2021/11/30 01:07:36;;;;;;;12.37;11.10;;;4.30;99.90;;;;;;5051385;28;20185;-66
2021/11/30 01:10:13;;;;;;;17.83;11.53;;;4.30;99.90;;;;;;5065525;28;20220;-65
2021/11/30 01:12:39;;;;;;;13.27;11.70;;;4.30;99.90;;;;;;5071033;28;20189;-66
2021/11/30 01:15:09;;;;;;;15.17;11.30;;;4.40;99.90;;;;;;5056984;28;20178;-66
2021/11/30 01:17:35;;;;;;;11.80;10.80;;;4.30;99.90;;;;;;5051187;28;20177;-66
2021/11/30 01:20:01;;;;;;;11.87;10.67;;;4.30;99.90;;;;;;5064867;28;20190;-65
2021/11/30 01:22:27;;;;;;;11.50;10.33;;;4.30;99.90;;;;;;5070986;28;20196;-66
2021/11/30 01:24:52;;;;;;;13.40;10.50;;;4.30;99.90;;;;;;5058688;28;20198;-66
2021/11/30 01:27:18;;;;;;;13.27;11.10;;;4.30;99.90;;;;;;5051214;28;20187;-65
2021/11/30 01:29:44;;;;;;;11.63;10.53;;;4.30;99.90;;;;;;5062046;28;20210;-66
2021/11/30 01:32:10;;;;;;;12.73;11.40;;;4.30;99.90;;;;;;5070573;28;20291;-66
2021/11/30 01:34:35;;;;;;;10.70;9.50;;;4.30;99.90;;;;;;5061362;28;20179;-66
2021/11/30 01:37:01;;;;;;;13.03;9.07;;;4.30;99.90;;;;;;5051138;28;20178;-66
2021/11/30 01:39:27;;;;;;;12.23;11.00;;;4.30;99.90;;;;;;5055250;28;20183;-66
2021/11/30 01:41:54;;;;;;;10.53;9.60;;;4.30;99.90;;;;;;5061925;28;20287;-66
2021/11/30 01:44:31;;;;;;;10.50;9.57;;;4.30;99.90;;;;;;5050847;28;20228;-66
2021/11/30 01:49:34;;;;;;;9.77;8.97;;;4.30;99.90;;;;;;5058353;28;20298;-65
2021/11/30 01:52:04;;;;;;;10.30;9.50;;;4.30;99.90;;;;;;5070570;28;20198;-65
2021/11/30 01:54:29;;;;;;;9.30;8.60;;;4.40;99.90;;;;;;5061808;28;20542;-65
2021/11/30 01:56:57;;;;;;;9.63;9.03;;;4.30;99.90;;;;;;5051940;28;20183;-66
2021/11/30 01:59:23;;;;;;;9.33;8.57;;;4.30;99.90;;;;;;5056740;28;20255;-66
2021/11/30 02:01:49;;;;;;;9.80;9.00;;;4.40;99.90;;;;;;5072631;28;20201;-66
2021/11/30 02:04:15;;;;;;;9.60;8.90;;;4.40;99.90;;;;;;5069586;28;20179;-66
2021/11/30 02:06:40;;;;;;;9.30;8.33;;;4.40;99.90;;;;;;5054369;28;20178;-66
2021/11/30 02:09:06;;;;;;;9.37;8.67;;;4.40;99.90;;;;;;5056940;28;20246;-66
2021/11/30 02:11:32;;;;;;;9.43;8.73;;;4.30;99.90;;;;;;5074377;28;20214;-66
2021/11/30 02:13:58;;;;;;;9.60;9.00;;;4.40;99.90;;;;;;5072057;28;20174;-66
2021/11/30 02:16:23;;;;;;;10.43;9.67;;;4.40;99.90;;;;;;5054221;28;20804;-66
2021/11/30 02:18:52;;;;;;;9.10;8.60;;;4.40;99.90;;;;;;5064345;28;20267;-66
2021/11/30 02:21:19;;;;;;;9.20;8.40;;;4.40;99.90;;;;;;5074148;28;20198;-66
2021/11/30 02:26:41;;;;;;;9.70;9.10;;;4.40;99.90;;;;;;5040874;28;20191;-66
2021/11/30 02:29:09;;;;;;;10.00;9.30;;;4.40;99.90;;;;;;5065535;28;20292;-66
2021/11/30 02:31:38;;;;;;;8.90;8.27;;;4.30;99.90;;;;;;5074373;28;20251;-66
2021/11/30 02:34:04;;;;;;;9.20;8.40;;;4.30;99.90;;;;;;5068383;28;20185;-66
2021/11/30 02:39:11;;;;;;;9.03;8.47;;;4.30;99.90;;;;;;5062271;28;20186;-66
2021/11/30 02:41:38;;;;;;;9.00;8.40;;;4.30;99.90;;;;;;5052485;28;20264;-65
2021/11/30 02:44:05;;;;;;;8.97;8.37;;;4.30;99.90;;;;;;5064782;28;20549;-66
2021/11/30 02:46:42;;;;;;;8.97;8.37;;;4.20;99.90;;;;;;5073678;28;21015;-65
2021/11/30 02:49:10;;;;;;;9.33;8.73;;;4.20;99.90;;;;;;5062058;28;20667;-65
2021/11/30 02:51:38;;;;;;;8.97;8.47;;;4.10;99.90;;;;;;5054570;28;20194;-65
2021/11/30 02:54:06;;;;;;;9.47;8.57;;;4.10;99.90;;;;;;5063438;28;20189;-66
2021/11/30 02:56:38;;;;;;;9.63;8.97;;;4.10;99.90;;;;;;5073633;28;20172;-66
2021/11/30 02:59:04;;;;;;;9.30;8.67;;;4.00;99.90;;;;;;5063568;28;20696;-66
2021/11/30 03:01:29;;;;;;;8.70;8.10;;;4.00;99.90;;;;;;5053525;28;20278;-66
2021/11/30 03:03:55;;;;;;;8.60;8.10;;;4.00;99.90;;;;;;5060884;28;20627;-66
2021/11/30 03:06:21;;;;;;;9.43;8.83;;;3.90;99.90;;;;;;5073609;28;20658;-66
2021/11/30 03:08:46;;;;;;;9.33;8.47;;;3.80;99.90;;;;;;5066061;28;20178;-66
2021/11/30 03:11:12;;;;;;;8.87;8.27;;;3.80;99.90;;;;;;5053259;28;20605;-67
2021/11/30 03:13:38;;;;;;;8.97;8.30;;;3.80;99.90;;;;;;5057059;28;20202;-66
2021/11/30 03:16:04;;;;;;;8.60;8.10;;;3.80;99.90;;;;;;5071898;28;20174;-66
2021/11/30 03:18:31;;;;;;;9.27;8.67;;;3.80;99.90;;;;;;5068469;28;20179;-67
2021/11/30 03:20:57;;;;;;;8.53;7.83;;;3.80;99.90;;;;;;5053001;28;20199;-66
2021/11/30 03:23:22;;;;;;;8.73;8.17;;;3.80;99.90;;;;;;5054045;28;20599;-66
2021/11/30 03:25:48;;;;;;;10.13;9.43;;;3.80;99.90;;;;;;5072866;28;20635;-66
2021/11/30 03:28:14;;;;;;;8.83;8.30;;;3.80;99.90;;;;;;5070771;28;20213;-66
2021/11/30 03:30:41;;;;;;;9.77;8.97;;;3.80;99.90;;;;;;5052790;28;20620;-66
2021/11/30 03:35:53;;;;;;;9.30;8.70;;;3.70;99.90;;;;;;5073177;28;20235;-66
2021/11/30 03:38:19;;;;;;;8.73;8.23;;;3.60;99.90;;;;;;5067781;28;20640;-66
2021/11/30 03:40:45;;;;;;;13.83;10.20;;;3.60;99.90;;;;;;5072787;28;20186;-66
2021/11/30 03:43:10;;;;;;;10.30;9.30;;;3.60;99.90;;;;;;5067610;28;20641;-66
2021/11/30 03:45:36;;;;;;;13.47;12.67;;;3.60;99.90;;;;;;5053057;28;20189;-65
2021/11/30 03:48:02;;;;;;;10.43;9.63;;;3.60;99.90;;;;;;5055573;28;20178;-65
2021/11/30 03:50:27;;;;;;;10.83;10.00;;;3.60;99.90;;;;;;5073924;28;20296;-65
2021/11/30 03:52:53;;;;;;;8.97;8.27;;;3.60;99.90;;;;;;5070364;28;20193;-65
2021/11/30 03:55:19;;;;;;;9.93;9.33;;;3.60;99.90;;;;;;5052901;28;20182;-65
2021/11/30 03:57:44;;;;;;;9.23;8.73;;;3.60;99.90;;;;;;5052785;28;20672;-66
2021/11/30 04:00:11;;;;;;;9.60;9.10;;;3.60;99.90;;;;;;5072444;28;20312;-65
2021/11/30 04:02:38;;;;;;;10.23;9.33;;;3.60;99.90;;;;;;5071615;28;20204;-65
2021/11/30 04:05:08;;;;;;;10.67;9.60;;;3.60;99.90;;;;;;5072191;28;20265;-66
2021/11/30 04:07:33;;;;;;;9.63;9.03;;;3.60;99.90;;;;;;5072705;28;20259;-66
2021/11/30 04:10:00;;;;;;;9.20;8.67;;;3.60;99.90;;;;;;5055149;28;20242;-65
2021/11/30 04:12:26;;;;;;;9.80;9.00;;;3.60;99.90;;;;;;5052264;28;20264;-65
2021/11/30 04:14:51;;;;;;;9.33;8.60;;;3.70;99.90;;;;;;5070216;28;20659;-66
2021/11/30 04:17:17;;;;;;;8.90;8.30;;;3.70;99.90;;;;;;5071344;28;20182;-65
2021/11/30 04:19:43;;;;;;;8.33;7.83;;;3.80;99.90;;;;;;5065585;28;20174;-65
2021/11/30 04:22:09;;;;;;;9.93;8.93;;;3.80;99.90;;;;;;5072455;28;20663;-65
2021/11/30 04:24:35;;;;;;;8.83;8.27;;;3.80;99.90;;;;;;5056339;28;20681;-66
2021/11/30 04:27:01;;;;;;;9.10;8.47;;;3.90;99.90;;;;;;5050681;28;20186;-66
2021/11/30 04:29:26;;;;;;;9.10;8.40;;;3.90;99.90;;;;;;5065715;28;20206;-66
2021/11/30 04:31:52;;;;;;;9.20;8.60;;;3.90;99.90;;;;;;5072000;28;20270;-66
2021/11/30 04:34:18;;;;;;;8.70;8.10;;;4.00;99.90;;;;;;5058615;28;20182;-66
2021/11/30 04:36:44;;;;;;;9.77;8.80;;;4.00;99.90;;;;;;5053474;28;20174;-66
2021/11/30 04:39:09;;;;;;;8.90;8.30;;;4.10;99.90;;;;;;5063668;28;20193;-65
2021/11/30 04:41:35;;;;;;;9.97;9.37;;;4.10;99.90;;;;;;5071653;28;20209;-66
2021/11/30 04:44:03;;;;;;;8.53;7.93;;;4.10;99.90;;;;;;5060789;28;20193;-66
2021/11/30 04:46:39;;;;;;;10.10;9.40;;;4.10;99.90;;;;;;5051566;28;20166;-66
2021/11/30 04:49:12;;;;;;;9.20;8.70;;;4.20;99.90;;;;;;5062000;28;20663;-67
2021/11/30 04:51:38;;;;;;;11.20;10.23;;;4.20;99.90;;;;;;5071564;28;20236;-66
2021/11/30 04:54:03;;;;;;;9.03;8.53;;;4.30;99.90;;;;;;5060708;28;20186;-66
2021/11/30 04:56:29;;;;;;;15.63;14.67;;;4.20;99.90;;;;;;5050163;28;20266;-66
2021/11/30 04:58:55;;;;;;;9.63;9.13;;;4.30;99.90;;;;;;5059788;28;20592;-66
2021/11/30 05:01:21;;;;;;;8.67;8.17;;;4.30;99.90;;;;;;5070323;28;20202;-66
2021/11/30 05:03:49;;;;;;;9.03;8.43;;;4.40;99.90;;;;;;5063110;28;20683;-66
2021/11/30 05:06:15;;;;;;;8.97;8.27;;;4.40;99.90;;;;;;5051601;28;20179;-65
2021/11/30 05:08:41;;;;;;;7.17;6.83;;;4.50;99.90;;;;;;5057270;28;20178;-66
2021/11/30 05:11:07;;;;;;;8.67;8.07;;;4.50;99.90;;;;;;5071416;28;20244;-66
2021/11/30 05:13:33;;;;;;;8.33;7.73;;;4.60;99.90;;;;;;5065002;28;20662;-66
2021/11/30 05:15:59;;;;;;;8.20;7.70;;;4.60;99.90;;;;;;5051417;28;20265;-66
2021/11/30 05:18:25;;;;;;;8.20;7.70;;;4.60;99.90;;;;;;5054900;28;20212;-66
2021/11/30 05:20:53;;;;;;;8.90;8.33;;;4.70;99.90;;;;;;5071248;28;20705;-67
2021/11/30 05:23:27;;;;;;;11.10;10.40;;;4.70;99.90;;;;;;5067334;28;20271;-66
2021/11/30 05:25:53;;;;;;;9.33;8.83;;;4.70;99.90;;;;;;5051233;28;20669;-66
2021/11/30 05:28:20;;;;;;;8.47;7.97;;;4.80;99.90;;;;;;5053820;28;20192;-65
2021/11/30 05:30:45;;;;;;;8.67;8.17;;;4.80;99.90;;;;;;5070968;28;20714;-66
2021/11/30 05:33:11;;;;;;;8.60;8.07;;;4.80;99.90;;;;;;5068401;28;20257;-65
2021/11/30 05:35:38;;;;;;;7.83;7.43;;;4.90;99.90;;;;;;5052440;28;20189;-66
2021/11/30 05:38:04;;;;;;;8.90;8.30;;;4.90;99.90;;;;;;5055730;28;20167;-66
2021/11/30 05:40:32;;;;;;;9.07;8.53;;;4.90;99.90;;;;;;5074920;28;20174;-66
2021/11/30 05:42:59;;;;;;;9.30;8.70;;;4.90;99.90;;;;;;5063238;28;20232;-66
2021/11/30 05:45:25;;;;;;;9.90;9.20;;;5.00;99.90;;;;;;5053627;28;20228;-66
2021/11/30 05:47:51;;;;;;;8.57;8.07;;;5.00;99.90;;;;;;5059464;28;20186;-66
2021/11/30 05:50:17;;;;;;;9.07;8.43;;;5.10;99.90;;;;;;5062524;28;20198;-67
2021/11/30 05:52:42;;;;;;;9.23;8.63;;;5.10;99.90;;;;;;5053048;28;20186;-66
2021/11/30 05:55:10;;;;;;;9.60;8.90;;;5.10;99.90;;;;;;5060085;28;20167;-65
2021/11/30 05:57:37;;;;;;;9.77;9.07;;;5.20;99.90;;;;;;5074693;28;20166;-67
2021/11/30 06:00:04;;;;;;;10.83;10.03;;;5.20;99.90;;;;;;5059542;28;20548;-66
2021/11/30 06:02:31;;;;;;;9.87;9.07;;;5.20;99.90;;;;;;5054350;28;20254;-66
2021/11/30 06:04:57;;;;;;;9.73;9.03;;;5.30;99.90;;;;;;5065480;28;20174;-66
2021/11/30 06:07:23;;;;;;;9.53;8.83;;;5.30;99.90;;;;;;5073253;28;20178;-66
2021/11/30 06:09:48;;;;;;;9.47;8.67;;;5.30;99.90;;;;;;5061116;28;20213;-65
2021/11/30 06:12:14;;;;;;;10.17;9.40;;;5.30;99.90;;;;;;5054135;28;20211;-65
2021/11/30 06:14:40;;;;;;;10.60;9.70;;;5.40;99.90;;;;;;5063765;28;20236;-66
2021/11/30 06:17:06;;;;;;;10.50;9.37;;;5.40;99.90;;;;;;5074304;28;20590;-66
2021/11/30 06:19:34;;;;;;;12.10;11.40;;;5.40;99.90;;;;;;5065219;28;20648;-66
2021/11/30 06:22:00;;;;;;;10.77;9.90;;;5.40;99.90;;;;;;5053835;28;20281;-66
2021/11/30 06:24:26;;;;;;;11.10;10.20;;;5.50;99.90;;;;;;5061581;28;20253;-66
2021/11/30 06:26:52;;;;;;;10.23;9.43;;;5.50;99.90;;;;;;5074020;28;20174;-67
2021/11/30 06:29:18;;;;;;;9.53;8.83;;;5.60;99.90;;;;;;5065679;28;20203;-66
2021/11/30 06:31:44;;;;;;;33.40;31.30;;;5.60;99.90;;;;;;5053793;28;20218;-66
2021/11/30 06:34:10;;;;;;;11.07;10.30;;;5.60;99.90;;;;;;5061844;28;20182;-66
2021/11/30 06:36:36;;;;;;;54.90;51.20;;;5.60;99.90;;;;;;5072443;28;20259;-66
2021/11/30 06:39:02;;;;;;;10.17;9.33;;;5.70;99.90;;;;;;5067007;28;20186;-67
2021/11/30 06:41:28;;;;;;;10.53;9.63;;;5.70;99.90;;;;;;5054282;28;20200;-66
2021/11/30 06:43:53;;;;;;;9.40;8.70;;;5.70;99.90;;;;;;5054733;28;20216;-66
2021/11/30 06:46:19;;;;;;;9.80;9.10;;;5.80;99.90;;;;;;5053891;28;20186;-66
2021/11/30 06:48:45;;;;;;;9.43;8.83;;;5.80;99.90;;;;;;5072129;28;20171;-66
2021/11/30 06:51:11;;;;;;;9.53;8.83;;;5.80;99.90;;;;;;5071623;28;20689;-66
2021/11/30 06:53:37;;;;;;;10.20;9.40;;;5.80;99.90;;;;;;5053690;28;20249;-66
2021/11/30 06:56:04;;;;;;;9.57;8.97;;;5.90;99.90;;;;;;5053323;28;20203;-66
2021/11/30 06:58:30;;;;;;;9.40;8.80;;;5.90;99.90;;;;;;5070680;28;20169;-65
2021/11/30 07:00:56;;;;;;;10.90;10.20;;;5.90;99.90;;;;;;5071812;28;20177;-66
2021/11/30 07:03:22;;;;;;;9.90;9.30;;;5.90;99.90;;;;;;5054577;28;20183;-66
2021/11/30 07:05:57;;;;;;;9.87;9.17;;;5.90;99.90;;;;;;5053037;28;20660;-66
2021/11/30 07:11:17;;;;;;;10.50;9.80;;;5.90;99.90;;;;;;5073407;28;20204;-66
2021/11/30 07:13:43;;;;;;;8.90;8.20;;;6.00;99.90;;;;;;5032829;28;20549;-66
2021/11/30 07:16:08;;;;;;;9.40;8.77;;;6.00;99.90;;;;;;5032378;28;20191;-66
2021/11/30 07:18:35;;;;;;;8.63;8.07;;;6.00;99.90;;;;;;5068786;28;20178;-66
2021/11/30 07:21:01;;;;;;;8.80;8.30;;;6.00;99.90;;;;;;5072558;28;20555;-65
2021/11/30 07:23:29;;;;;;;9.37;8.77;;;6.00;99.90;;;;;;5054081;28;20555;-66
2021/11/30 07:25:55;;;;;;;22.67;21.40;;;6.00;99.90;;;;;;5053097;28;20174;-65
2021/11/30 07:28:28;;;;;;;9.67;8.87;;;6.00;99.90;;;;;;5069959;28;20255;-65
2021/11/30 07:30:57;;;;;;;9.33;8.73;;;6.00;99.90;;;;;;5072512;28;20734;-66
2021/11/30 07:33:22;;;;;;;9.07;8.47;;;6.00;99.90;;;;;;5061370;28;20198;-66
2021/11/30 07:35:48;;;;;;;10.13;9.33;;;6.10;99.90;;;;;;5053910;28;20218;-66
2021/11/30 07:38:14;;;;;;;9.63;8.93;;;6.10;99.90;;;;;;5052037;28;20179;-67
2021/11/30 07:40:39;;;;;;;9.17;8.60;;;6.10;99.90;;;;;;5052564;28;20178;-66
2021/11/30 07:43:05;;;;;;;20.43;19.07;;;6.10;99.90;;;;;;5052514;28;20198;-65
2021/11/30 07:45:30;;;;;;;10.20;9.50;;;6.10;99.90;;;;;;5052654;28;20178;-66
2021/11/30 07:47:56;;;;;;;12.83;11.93;;;6.20;99.90;;;;;;5052636;28;20702;-66
2021/11/30 07:50:22;;;;;;;10.70;10.03;;;6.20;99.90;;;;;;5050492;28;20217;-65
2021/11/30 07:52:48;;;;;;;11.10;10.13;;;6.20;99.90;;;;;;5052020;28;20210;-65
2021/11/30 07:55:15;;;;;;;11.93;10.97;;;6.20;99.90;;;;;;5051433;28;20171;-66
2021/11/30 07:57:41;;;;;;;11.30;10.40;;;6.20;99.90;;;;;;5051218;28;20189;-66
2021/11/30 08:00:13;;;;;;;11.37;10.47;;;6.30;99.90;;;;;;5050855;28;20182;-67
2021/11/30 08:02:39;;;;;;;10.40;9.63;;;6.30;99.90;;;;;;5051832;28;20286;-66
2021/11/30 08:05:06;;;;;;;10.73;9.93;;;6.30;99.90;;;;;;5052512;28;20313;-66
2021/11/30 08:07:32;;;;;;;11.37;10.33;;;6.30;99.90;;;;;;5052350;28;20662;-67
2021/11/30 08:09:59;;;;;;;10.40;9.70;;;6.40;99.90;;;;;;5052306;28;20317;-67
2021/11/30 08:12:24;;;;;;;10.57;9.67;;;6.40;99.90;;;;;;5051943;28;20560;-67
2021/11/30 08:14:50;;;;;;;10.83;9.97;;;6.40;99.90;;;;;;5052015;28;20175;-65
2021/11/30 08:17:18;;;;;;;8.63;8.10;;;6.40;99.90;;;;;;5052306;28;20187;-65
2021/11/30 08:19:44;;;;;;;9.83;9.03;;;6.40;99.90;;;;;;5052105;28;20173;-66
2021/11/30 08:22:11;;;;;;;9.90;9.10;;;6.50;99.90;;;;;;5051920;28;20285;-68
2021/11/30 08:24:37;;;;;;;10.30;9.50;;;6.50;99.90;;;;;;5051950;28;20663;-67
2021/11/30 08:27:04;;;;;;;9.73;9.03;;;6.50;99.90;;;;;;5052032;28;20198;-67
2021/11/30 08:29:31;;;;;;;9.93;9.23;;;6.50;99.90;;;;;;5051929;28;20195;-67
2021/11/30 08:31:58;;;;;;;10.50;9.70;;;6.50;99.90;;;;;;5052132;28;20297;-65
2021/11/30 08:34:24;;;;;;;9.67;8.93;;;6.60;99.90;;;;;;5052180;28;20179;-66
2021/11/30 08:36:50;;;;;;;9.57;8.97;;;6.60;99.90;;;;;;5051842;28;20657;-66
2021/11/30 08:39:15;;;;;;;10.90;9.90;;;6.60;99.90;;;;;;5051817;28;20648;-66
2021/11/30 08:41:41;;;;;;;10.27;9.53;;;6.70;99.90;;;;;;5051850;28;20214;-66
2021/11/30 08:44:06;;;;;;;9.40;8.80;;;6.70;99.90;;;;;;5051570;28;20540;-66
2021/11/30 08:46:32;;;;;;;10.80;9.90;;;6.70;99.90;;;;;;5050447;28;20273;-65
2021/11/30 08:48:58;;;;;;;23.53;22.33;;;6.70;99.90;;;;;;5048722;28;20636;-64
2021/11/30 08:51:25;;;;;;;11.77;10.97;;;6.80;99.90;;;;;;5050638;28;20187;-65
2021/11/30 08:53:51;;;;;;;10.40;9.73;;;6.80;99.90;;;;;;5051639;28;20250;-64
2021/11/30 08:56:17;;;;;;;12.67;11.73;;;6.80;99.90;;;;;;5052151;28;20175;-64
2021/11/30 08:58:42;;;;;;;10.90;10.10;;;6.80;99.90;;;;;;5051582;28;20201;-64
2021/11/30 09:01:09;;;;;;;11.20;10.40;;;6.90;99.90;;;;;;5051938;28;20577;-63
2021/11/30 09:03:35;;;;;;;11.10;10.33;;;6.90;99.90;;;;;;5051737;28;20182;-66
2021/11/30 09:06:01;;;;;;;10.90;10.10;;;6.90;99.90;;;;;;5051929;28;20178;-67
2021/11/30 09:08:26;;;;;;;10.33;9.63;;;7.00;99.90;;;;;;5050702;28;20558;-66
2021/11/30 09:10:52;;;;;;;10.40;9.60;;;7.00;99.90;;;;;;5052361;28;20206;-65
2021/11/30 09:13:18;;;;;;;9.80;9.10;;;7.00;99.90;;;;;;5055835;28;20185;-64
2021/11/30 09:15:44;;;;;;;12.83;12.13;;;7.00;99.90;;;;;;5055924;28;20190;-65
2021/11/30 09:18:10;;;;;;;10.27;9.47;;;7.00;99.90;;;;;;5055825;28;20209;-65
2021/11/30 09:20:36;;;;;;;10.13;9.47;;;7.10;99.90;;;;;;5055921;28;20261;-65
2021/11/30 09:23:02;;;;;;;11.23;10.33;;;7.10;99.90;;;;;;5055319;28;20755;-65
2021/11/30 09:25:28;;;;;;;10.63;9.83;;;7.10;99.90;;;;;;5055896;28;20912;-65
2021/11/30 09:27:54;;;;;;;10.17;9.47;;;7.10;99.90;;;;;;5055579;28;20189;-64
2021/11/30 09:30:22;;;;;;;11.43;10.37;;;7.10;99.90;;;;;;5055548;28;20209;-64
2021/11/30 09:32:49;;;;;;;12.90;11.70;;;7.10;99.90;;;;;;5055274;28;20676;-65
2021/11/30 09:35:18;;;;;;;13.83;12.87;;;7.10;99.90;;;;;;5055932;28;20593;-64
2021/11/30 09:37:46;;;;;;;10.27;9.43;;;7.10;99.90;;;;;;5054305;28;20175;-65
2021/11/30 09:40:15;;;;;;;9.17;8.57;;;7.20;99.90;;;;;;5062403;28;20221;-65
2021/11/30 09:42:43;;;;;;;10.53;9.73;;;7.20;99.90;;;;;;5059287;28;20261;-64
2021/11/30 09:45:12;;;;;;;9.50;8.90;;;7.20;99.90;;;;;;5055216;28;20246;-64
2021/11/30 09:47:39;;;;;;;9.40;8.73;;;7.20;99.90;;;;;;5055151;28;20242;-65
2021/11/30 09:50:07;;;;;;;11.03;10.33;;;7.30;99.90;;;;;;5052822;28;20275;-65
2021/11/30 09:52:33;;;;;;;9.67;8.97;;;7.30;99.90;;;;;;5053279;28;20202;-65
2021/11/30 09:54:58;;;;;;;9.70;9.03;;;7.30;99.90;;;;;;5055296;28;20238;-65
2021/11/30 09:57:24;;;;;;;15.60;14.70;;;7.40;99.90;;;;;;5055178;28;20198;-65
2021/11/30 09:59:50;;;;;;;12.00;11.20;;;7.40;99.90;;;;;;5053955;28;20646;-65
2021/11/30 10:02:16;;;;;;;17.67;16.57;;;7.40;99.90;;;;;;5054623;28;20619;-65
2021/11/30 10:04:43;;;;;;;96.87;91.07;;;7.50;99.90;;;;;;5054559;28;20225;-65
2021/11/30 10:07:08;;;;;;;10.93;10.23;;;7.50;99.90;;;;;;5053569;28;20175;-65
2021/11/30 10:09:34;;;;;;;10.67;9.90;;;7.50;99.90;;;;;;5054613;28;20294;-65
2021/11/30 10:12:03;;;;;;;17.07;16.07;;;7.60;99.90;;;;;;5054253;28;20190;-65
2021/11/30 10:14:35;;;;;;;19.07;18.10;;;7.60;99.90;;;;;;5054644;28;20178;-65
2021/11/30 10:17:10;;;;;;;21.80;20.60;;;7.60;99.90;;;;;;5054561;28;20218;-65
2021/11/30 10:19:36;;;;;;;16.47;15.57;;;7.60;99.90;;;;;;5054591;28;20182;-65
2021/11/30 10:22:02;;;;;;;14.20;13.50;;;7.60;99.90;;;;;;5053827;28;20201;-65
2021/11/30 10:24:28;;;;;;;11.27;10.57;;;7.70;99.90;;;;;;5055368;28;20257;-65
2021/11/30 10:26:57;;;;;;;16.07;15.20;;;7.70;99.90;;;;;;5058423;28;20245;-65
2021/11/30 10:29:23;;;;;;;82.73;77.33;;;7.70;99.90;;;;;;5073818;28;20202;-64
2021/11/30 10:31:53;;;;;;;36.37;33.87;;;7.70;99.90;;;;;;5052103;28;20260;-64
2021/11/30 10:34:26;;;;;;;11.33;10.47;;;7.80;99.90;;;;;;5053033;28;20182;-65
2021/11/30 10:37:05;;;;;;;9.80;9.10;;;7.80;99.90;;;;;;5071576;28;20198;-65
2021/11/30 10:39:34;;;;;;;52.50;49.50;;;7.80;99.90;;;;;;5072542;28;20253;-65
2021/11/30 10:42:17;;;;;;;11.37;10.63;;;7.80;99.90;;;;;;5070253;28;20309;-65
2021/11/30 10:44:44;;;;;;;10.87;10.17;;;7.90;99.90;;;;;;5052218;28;20201;-65
2021/11/30 10:47:13;;;;;;;9.63;9.03;;;7.90;99.90;;;;;;5052417;28;20477;-64
2021/11/30 10:49:53;;;;;;;18.07;17.10;;;7.90;99.90;;;;;;5052710;28;20672;-65
2021/11/30 10:52:25;;;;;;;11.90;11.20;;;7.90;99.90;;;;;;5054537;28;20663;-66
2021/11/30 10:54:52;;;;;;;14.07;13.37;;;7.90;99.90;;;;;;5052263;28;20178;-65
2021/11/30 10:57:27;;;;;;;16.40;15.27;;;7.90;99.90;;;;;;5054474;28;20553;-66
2021/11/30 11:00:16;;;;;;;25.63;24.17;;;7.90;99.90;;;;;;5053345;28;20234;-65
2021/11/30 11:02:52;;;;;;;48.73;46.23;;;7.90;99.90;;;;;;5053413;28;20230;-65
2021/11/30 11:05:26;;;;;;;16.43;15.53;;;8.00;99.90;;;;;;5053191;28;20232;-66
2021/11/30 11:08:02;;;;;;;11.63;10.93;;;8.00;99.90;;;;;;5058763;28;20541;-66
2021/11/30 11:10:28;;;;;;;11.47;10.77;;;8.00;99.90;;;;;;5072571;28;20228;-66
2021/11/30 11:12:53;;;;;;;8.87;8.37;;;8.00;99.90;;;;;;5067506;28;20285;-65
2021/11/30 11:15:39;;;;;;;10.27;9.67;;;8.00;99.90;;;;;;5052744;28;20194;-65
2021/11/30 11:18:24;;;;;;;8.43;7.93;;;8.00;99.90;;;;;;5054948;28;20182;-65
2021/11/30 11:21:06;;;;;;;9.67;9.17;;;8.00;99.90;;;;;;5071992;28;20189;-66
2021/11/30 11:23:32;;;;;;;36.93;35.07;;;8.10;99.90;;;;;;5067501;28;20186;-66
2021/11/30 11:25:59;;;;;;;8.90;8.47;;;8.10;99.90;;;;;;5071151;28;20173;-66
2021/11/30 11:28:25;;;;;;;10.03;9.43;;;8.10;99.90;;;;;;5070683;28;20643;-65
2021/11/30 11:30:51;;;;;;;9.00;8.50;;;8.10;99.90;;;;;;5033510;28;1100273;-65
2021/11/30 11:33:17;;;;;;;9.80;9.30;;;8.10;99.90;;;;;;5070779;28;20202;-65
2021/11/30 11:35:43;;;;;;;10.23;9.53;;;8.10;99.90;;;;;;5071149;28;20590;-65
2021/11/30 11:38:11;;;;;;;8.27;7.87;;;8.20;99.90;;;;;;5071520;28;20253;-65
2021/11/30 11:40:37;;;;;;;8.90;8.37;;;8.20;99.90;;;;;;5073082;28;20534;-65
2021/11/30 11:43:03;;;;;;;8.43;7.93;;;8.20;99.90;;;;;;5065336;28;20209;-64
2021/11/30 11:45:29;;;;;;;7.87;7.47;;;8.30;99.90;;;;;;5051477;28;20175;-65
2021/11/30 11:48:06;;;;;;;7.97;7.57;;;8.20;99.90;;;;;;5065248;28;20235;-65
2021/11/30 11:50:51;;;;;;;7.47;7.07;;;8.20;99.90;;;;;;5071997;28;20197;-65
2021/11/30 11:53:41;;;;;;;7.70;7.30;;;8.20;99.90;;;;;;5054532;28;20523;-65
2021/11/30 11:56:13;;;;;;;7.60;7.10;;;8.20;99.90;;;;;;5040749;28;20564;-65
2021/11/30 11:58:41;;;;;;;10.43;9.90;;;8.30;99.90;;;;;;5053727;28;20181;-66
2021/11/30 12:01:12;;;;;;;8.10;7.60;;;8.30;99.90;;;;;;5052576;28;20187;-65
2021/11/30 12:03:58;;;;;;;8.00;7.60;;;8.30;99.90;;;;;;5052287;28;20186;-65
2021/11/30 12:06:26;;;;;;;7.40;7.00;;;8.30;99.90;;;;;;5051379;28;20547;-65
2021/11/30 12:09:09;;;;;;;7.63;7.17;;;8.30;99.90;;;;;;5053389;28;20187;-64
2021/11/30 12:11:44;;;;;;;8.50;8.00;;;8.40;99.90;;;;;;5051354;28;20565;-65
2021/11/30 12:14:33;;;;;;;12.37;11.77;;;8.40;99.90;;;;;;5032541;28;20181;-65
2021/11/30 12:17:07;;;;;;;9.37;8.77;;;8.40;99.90;;;;;;5036281;28;20357;-66
2021/11/30 12:19:41;;;;;;;11.50;10.90;;;8.40;99.90;;;;;;5052928;28;20171;-65
2021/11/30 12:22:09;;;;;;;11.77;11.17;;;8.40;99.90;;;;;;5052305;28;20247;-65
2021/11/30 12:24:41;;;;;;;56.60;53.50;;;8.40;99.90;;;;;;5052479;28;20625;-65
2021/11/30 12:27:22;;;;;;;12.17;11.57;;;8.40;99.90;;;;;;5068647;28;20631;-65
2021/11/30 12:29:49;;;;;;;23.33;22.13;;;8.40;99.90;;;;;;5053532;28;20218;-64
2021/11/30 12:32:52;;;;;;;16.63;15.73;;;8.40;99.90;;;;;;5062584;28;20568;-65
2021/11/30 12:35:19;;;;;;;8.70;8.10;;;8.40;99.90;;;;;;5049661;28;20660;-65
2021/11/30 12:37:47;;;;;;;10.00;9.40;;;8.40;99.90;;;;;;5057971;28;20178;-64
2021/11/30 12:40:15;;;;;;;10.40;9.70;;;8.40;99.90;;;;;;5063497;28;20178;-65
2021/11/30 12:42:41;;;;;;;9.50;8.80;;;8.40;99.90;;;;;;5056951;28;20198;-65
2021/11/30 12:45:10;;;;;;;9.13;8.53;;;8.40;99.90;;;;;;5056303;28;20244;-65
2021/11/30 12:47:36;;;;;;;9.70;9.10;;;8.40;99.90;;;;;;5051812;28;20232;-65
2021/11/30 12:50:06;;;;;;;9.87;9.27;;;8.40;99.90;;;;;;5056402;28;20655;-64
2021/11/30 12:52:38;;;;;;;18.80;17.67;;;8.40;99.90;;;;;;5052289;28;20240;-65
2021/11/30 12:55:06;;;;;;;11.40;10.70;;;8.40;99.90;;;;;;5067561;28;20238;-64
2021/11/30 12:57:32;;;;;;;12.40;11.60;;;8.50;99.90;;;;;;5053258;28;20625;-65
2021/11/30 13:00:11;;;;;;;11.93;10.97;;;8.50;99.90;;;;;;5070034;28;20194;-65
2021/11/30 13:02:45;;;;;;;15.87;14.67;;;8.50;99.90;;;;;;5033987;28;20241;-65
2021/11/30 13:05:10;;;;;;;14.27;13.33;;;8.50;99.90;;;;;;5068959;28;20178;-65